Time;durP1;ratioP1;P1;durP2;ratioP2;P2;SDS_P1;SDS_P2;PMS_P1;PMS_P2;Temp;Humidity;BMP_temperature;BMP_pressure;BME280_temperature;BME280_humidity;BME280_pressure;Samples;Min_cycle;Max_cycle;Signal;HPM_P1;HPM_P2
2021/09/23 00:01:15;;;;;;;8.55;4.28;;;16.50;81.80;;;;;;5066611;28;20490;-61
2021/09/23 00:03:56;;;;;;;12.45;4.70;;;16.50;81.90;;;;;;5065858;28;20043;-61
2021/09/23 00:06:22;;;;;;;7.97;4.80;;;16.50;81.90;;;;;;5084848;28;20020;-61
2021/09/23 00:08:47;;;;;;;9.88;4.82;;;16.50;82.00;;;;;;5086731;28;20105;-60
2021/09/23 00:11:13;;;;;;;10.00;4.47;;;16.40;82.00;;;;;;5066926;28;20020;-61
2021/09/23 00:13:38;;;;;;;11.23;4.93;;;16.40;82.10;;;;;;5081261;28;20424;-61
2021/09/23 00:16:04;;;;;;;8.55;4.68;;;16.40;82.10;;;;;;5082978;28;20407;-61
2021/09/23 00:18:31;;;;;;;7.47;4.90;;;16.40;82.10;;;;;;5086151;28;20517;-61
2021/09/23 00:20:56;;;;;;;10.65;4.10;;;16.40;82.20;;;;;;5082209;28;20015;-61
2021/09/23 00:23:22;;;;;;;15.15;4.47;;;16.40;82.10;;;;;;5084176;28;20048;-61
2021/09/23 00:25:47;;;;;;;6.60;4.63;;;16.40;82.20;;;;;;5078782;28;20048;-61
2021/09/23 00:28:13;;;;;;;7.30;4.55;;;16.40;82.20;;;;;;5083201;28;20043;-61
2021/09/23 00:30:39;;;;;;;7.88;4.57;;;16.40;82.30;;;;;;5083713;28;20051;-61
2021/09/23 00:33:04;;;;;;;11.57;6.38;;;16.30;82.30;;;;;;5064687;28;20036;-61
2021/09/23 00:35:30;;;;;;;6.75;5.88;;;16.30;82.40;;;;;;5083242;28;20028;-61
2021/09/23 00:37:55;;;;;;;10.68;5.75;;;16.30;82.40;;;;;;5066716;28;20059;-61
2021/09/23 00:40:21;;;;;;;10.00;5.00;;;16.30;82.40;;;;;;5082945;28;20533;-61
2021/09/23 00:42:47;;;;;;;6.82;5.35;;;16.30;82.50;;;;;;5062518;28;20127;-60
2021/09/23 00:45:13;;;;;;;8.00;5.32;;;16.30;82.60;;;;;;5067572;28;20534;-61
2021/09/23 00:47:39;;;;;;;11.98;5.32;;;16.20;82.60;;;;;;5049537;28;20472;-61
2021/09/23 00:50:05;;;;;;;11.27;5.68;;;16.20;82.60;;;;;;5083908;28;20974;-61
2021/09/23 00:52:31;;;;;;;12.63;5.32;;;16.20;82.80;;;;;;5081701;28;20092;-61
2021/09/23 00:54:57;;;;;;;10.35;5.22;;;16.20;82.90;;;;;;5080070;28;20493;-61
2021/09/23 00:57:22;;;;;;;9.32;5.13;;;16.10;83.00;;;;;;5065123;28;20100;-61
2021/09/23 00:59:48;;;;;;;14.38;5.57;;;16.10;83.00;;;;;;5085149;28;20031;-61
2021/09/23 01:02:17;;;;;;;11.07;5.40;;;16.10;83.00;;;;;;5065529;28;20039;-61
2021/09/23 01:04:44;;;;;;;10.43;4.95;;;16.10;83.00;;;;;;5083804;28;20130;-61
2021/09/23 01:07:14;;;;;;;11.10;4.90;;;16.10;83.00;;;;;;5084110;28;20038;-61
2021/09/23 01:09:42;;;;;;;11.13;5.50;;;16.10;83.10;;;;;;5064193;28;20481;-61
2021/09/23 01:12:08;;;;;;;12.88;5.13;;;16.10;83.10;;;;;;5065433;28;20024;-61
2021/09/23 01:14:33;;;;;;;10.63;4.97;;;16.10;83.30;;;;;;5064366;28;20068;-60
2021/09/23 01:16:59;;;;;;;8.23;4.45;;;16.00;83.30;;;;;;5065121;28;20020;-61
2021/09/23 01:19:25;;;;;;;11.10;4.75;;;16.00;83.30;;;;;;5065085;28;20349;-61
2021/09/23 01:21:50;;;;;;;9.43;4.88;;;16.00;83.40;;;;;;5064281;28;20051;-61
2021/09/23 01:24:16;;;;;;;8.68;5.05;;;16.00;83.30;;;;;;5085063;28;20083;-61
2021/09/23 01:26:41;;;;;;;8.70;4.22;;;16.00;83.40;;;;;;5084431;28;20044;-61
2021/09/23 01:29:07;;;;;;;8.23;4.32;;;16.00;83.40;;;;;;5080594;28;20474;-61
2021/09/23 01:31:32;;;;;;;6.57;4.60;;;16.00;83.50;;;;;;5081356;28;20042;-61
2021/09/23 01:33:58;;;;;;;8.07;4.50;;;16.00;83.50;;;;;;5081704;28;20032;-60
2021/09/23 01:36:23;;;;;;;8.10;4.45;;;16.00;83.60;;;;;;5082728;28;20020;-61
2021/09/23 01:38:52;;;;;;;5.43;4.10;;;16.00;83.60;;;;;;5084831;28;20081;-61
2021/09/23 01:41:17;;;;;;;7.03;4.20;;;16.00;83.60;;;;;;5080275;28;20105;-61
2021/09/23 01:43:43;;;;;;;6.47;4.53;;;15.90;83.50;;;;;;5064839;28;20028;-61
2021/09/23 01:46:08;;;;;;;8.00;4.85;;;15.90;83.50;;;;;;5062783;28;21652;-61
2021/09/23 01:48:34;;;;;;;8.90;4.80;;;15.90;83.50;;;;;;5078681;28;20514;-61
2021/09/23 01:50:59;;;;;;;7.20;4.40;;;15.90;83.50;;;;;;5083348;28;20028;-61
2021/09/23 01:53:25;;;;;;;15.50;4.93;;;15.90;83.70;;;;;;5084980;28;20024;-61
2021/09/23 01:55:51;;;;;;;8.65;4.68;;;15.80;83.70;;;;;;5081540;28;20031;-61
2021/09/23 01:58:16;;;;;;;7.43;4.82;;;15.90;83.70;;;;;;5065540;28;20020;-61
2021/09/23 02:00:42;;;;;;;6.38;5.00;;;15.90;83.80;;;;;;5081944;28;20093;-61
2021/09/23 02:03:07;;;;;;;7.22;4.85;;;15.80;83.80;;;;;;5047372;28;20476;-61
2021/09/23 02:05:33;;;;;;;8.68;4.95;;;15.80;83.80;;;;;;5063847;28;20455;-61
2021/09/23 02:07:58;;;;;;;8.77;4.82;;;15.80;83.90;;;;;;5082688;28;20114;-61
2021/09/23 02:10:24;;;;;;;9.38;5.15;;;15.80;84.00;;;;;;5083346;28;20108;-61
2021/09/23 02:12:49;;;;;;;7.97;4.72;;;15.70;84.00;;;;;;5077832;28;20330;-60
2021/09/23 02:15:15;;;;;;;6.60;4.63;;;15.70;84.00;;;;;;5047327;28;20032;-61
2021/09/23 02:17:41;;;;;;;6.78;4.85;;;15.70;84.00;;;;;;5063809;28;20100;-60
2021/09/23 02:20:07;;;;;;;6.55;4.93;;;15.70;84.10;;;;;;5082527;28;20464;-61
2021/09/23 02:22:32;;;;;;;7.75;4.63;;;15.70;84.20;;;;;;5044410;28;20063;-61
2021/09/23 02:24:58;;;;;;;4.93;4.43;;;15.70;84.30;;;;;;5078717;28;20046;-61
2021/09/23 02:27:24;;;;;;;6.82;4.97;;;15.60;84.20;;;;;;5059277;28;20046;-60
2021/09/23 02:29:49;;;;;;;6.88;4.85;;;15.60;84.20;;;;;;5045602;28;20036;-61
2021/09/23 02:32:15;;;;;;;7.38;4.78;;;15.60;84.20;;;;;;5062321;28;20062;-61
2021/09/23 02:34:40;;;;;;;6.40;4.93;;;15.60;84.30;;;;;;5080393;28;20036;-60
2021/09/23 02:37:06;;;;;;;7.47;4.75;;;15.60;84.40;;;;;;5056689;28;20067;-61
2021/09/23 02:39:31;;;;;;;8.43;4.20;;;15.60;84.50;;;;;;5059345;28;20387;-61
2021/09/23 02:41:57;;;;;;;5.95;4.90;;;15.60;84.50;;;;;;5078981;28;20036;-61
2021/09/23 02:44:23;;;;;;;9.63;4.82;;;15.60;84.70;;;;;;5061840;28;20043;-61
2021/09/23 02:46:48;;;;;;;7.82;4.50;;;15.50;84.60;;;;;;5062283;28;20663;-63
2021/09/23 02:49:13;;;;;;;8.35;4.70;;;15.40;84.60;;;;;;5064561;28;20036;-60
2021/09/23 02:51:39;;;;;;;5.72;4.28;;;15.50;84.60;;;;;;5060808;28;20040;-60
2021/09/23 02:54:05;;;;;;;5.72;4.22;;;15.50;84.70;;;;;;5079382;28;20431;-61
2021/09/23 02:56:30;;;;;;;7.00;4.70;;;15.50;84.80;;;;;;5062840;28;20295;-60
2021/09/23 02:58:56;;;;;;;6.60;4.70;;;15.50;84.80;;;;;;5082512;28;20491;-60
2021/09/23 03:01:22;;;;;;;9.02;4.70;;;15.40;84.80;;;;;;5061828;28;20047;-61
2021/09/23 03:03:47;;;;;;;9.25;4.22;;;15.40;84.80;;;;;;5062710;28;20016;-61
2021/09/23 03:06:13;;;;;;;6.40;4.20;;;15.40;84.90;;;;;;5079045;28;20476;-60
2021/09/23 03:08:38;;;;;;;7.18;4.72;;;15.40;85.00;;;;;;5083367;28;20087;-60
2021/09/23 03:11:04;;;;;;;7.60;4.40;;;15.40;85.10;;;;;;5081951;28;20130;-60
2021/09/23 03:13:29;;;;;;;6.75;4.45;;;15.30;84.90;;;;;;5081374;28;20036;-60
2021/09/23 03:15:55;;;;;;;7.63;5.00;;;15.30;84.90;;;;;;5046036;28;20028;-60
2021/09/23 03:18:20;;;;;;;6.07;4.22;;;15.30;84.90;;;;;;5079023;28;20040;-60
2021/09/23 03:20:47;;;;;;;6.82;5.03;;;15.30;85.00;;;;;;5062321;28;20023;-61
2021/09/23 03:23:13;;;;;;;7.80;4.47;;;15.30;85.10;;;;;;5063599;28;20046;-60
2021/09/23 03:25:39;;;;;;;7.30;4.35;;;15.20;85.10;;;;;;5061811;28;20052;-60
2021/09/23 03:28:05;;;;;;;5.38;4.68;;;15.20;85.20;;;;;;5061121;28;20113;-60
2021/09/23 03:30:30;;;;;;;35.83;6.63;;;15.20;85.20;;;;;;5063373;28;20221;-60
2021/09/23 03:32:56;;;;;;;54.53;7.07;;;15.20;85.30;;;;;;5061339;28;20036;-60
2021/09/23 03:35:22;;;;;;;28.75;6.13;;;15.10;85.20;;;;;;5061684;28;20032;-60
2021/09/23 03:37:48;;;;;;;26.00;6.28;;;15.10;85.30;;;;;;5061817;28;20059;-60
2021/09/23 03:40:14;;;;;;;32.65;6.65;;;15.10;85.40;;;;;;5064698;28;20030;-60
2021/09/23 03:42:39;;;;;;;38.78;6.82;;;15.10;85.40;;;;;;5080044;28;20035;-60
2021/09/23 03:45:05;;;;;;;39.00;7.35;;;15.10;85.30;;;;;;5078854;28;20044;-60
2021/09/23 03:47:31;;;;;;;32.30;6.13;;;15.10;85.40;;;;;;5061917;28;20348;-60
2021/09/23 03:49:56;;;;;;;33.30;6.50;;;15.00;85.40;;;;;;5062187;28;20055;-61
2021/09/23 03:52:22;;;;;;;25.60;6.18;;;15.10;85.40;;;;;;5082603;28;20732;-60
2021/09/23 03:54:48;;;;;;;26.77;7.18;;;15.00;85.40;;;;;;5063919;28;20096;-60
2021/09/23 03:57:13;;;;;;;28.85;6.50;;;15.00;85.30;;;;;;5078053;28;20054;-60
2021/09/23 03:59:39;;;;;;;35.05;7.28;;;15.00;85.30;;;;;;5063745;28;20047;-60
2021/09/23 04:02:06;;;;;;;34.47;6.68;;;15.00;85.30;;;;;;5079672;28;20077;-60
2021/09/23 04:04:32;;;;;;;39.38;7.47;;;15.00;85.40;;;;;;5082239;28;20028;-61
2021/09/23 04:06:57;;;;;;;28.15;6.10;;;15.00;85.40;;;;;;5063001;28;20070;-60
2021/09/23 04:09:23;;;;;;;29.52;6.63;;;15.00;85.40;;;;;;5081145;28;20016;-60
2021/09/23 04:11:48;;;;;;;37.55;7.05;;;14.90;85.50;;;;;;5079201;28;20098;-60
2021/09/23 04:14:14;;;;;;;33.72;6.65;;;14.90;85.60;;;;;;5060290;28;20047;-60
2021/09/23 04:16:39;;;;;;;30.15;6.75;;;14.90;85.80;;;;;;5063694;28;20048;-60
2021/09/23 04:19:05;;;;;;;31.38;6.82;;;14.90;85.90;;;;;;5062144;28;20040;-60
2021/09/23 04:21:30;;;;;;;74.72;8.88;;;14.90;86.20;;;;;;5063831;28;20086;-60
2021/09/23 04:23:56;;;;;;;61.00;8.32;;;14.90;86.20;;;;;;5060570;28;20044;-61
2021/09/23 04:26:22;;;;;;;35.47;7.63;;;14.90;86.20;;;;;;5080020;28;20434;-60
2021/09/23 04:28:47;;;;;;;37.42;7.80;;;14.90;86.30;;;;;;5081689;28;20020;-60
2021/09/23 04:31:13;;;;;;;41.83;7.38;;;14.90;86.30;;;;;;5061601;28;20134;-60
2021/09/23 04:33:38;;;;;;;36.05;7.85;;;14.90;86.30;;;;;;5081308;28;20028;-60
2021/09/23 04:36:04;;;;;;;53.47;7.13;;;14.80;86.30;;;;;;5059515;28;20102;-60
2021/09/23 04:38:29;;;;;;;34.78;6.95;;;14.80;86.50;;;;;;5084386;28;20036;-60
2021/09/23 04:40:55;;;;;;;46.92;6.50;;;14.80;86.70;;;;;;5083628;28;20039;-60
2021/09/23 04:43:20;;;;;;;26.00;5.93;;;14.80;86.90;;;;;;5065071;28;20043;-63
2021/09/23 04:45:47;;;;;;;25.17;6.68;;;14.80;86.90;;;;;;5065430;28;20035;-63
2021/09/23 04:48:12;;;;;;;31.25;6.63;;;14.70;86.90;;;;;;5066407;28;20472;-63
2021/09/23 04:50:38;;;;;;;33.63;6.95;;;14.70;86.80;;;;;;5084029;28;20078;-63
2021/09/23 04:53:04;;;;;;;52.75;7.88;;;14.70;86.80;;;;;;5084486;28;20028;-63
2021/09/23 04:55:29;;;;;;;40.53;7.50;;;14.70;86.80;;;;;;5065291;28;20084;-63
2021/09/23 04:57:55;;;;;;;53.33;7.18;;;14.70;86.90;;;;;;5049900;28;20028;-63
2021/09/23 05:00:20;;;;;;;28.38;6.63;;;14.60;86.90;;;;;;5084030;28;20036;-63
2021/09/23 05:02:46;;;;;;;42.92;6.40;;;14.60;87.00;;;;;;5079201;28;20047;-63
2021/09/23 05:05:12;;;;;;;33.35;6.30;;;14.60;87.10;;;;;;5083666;28;20385;-63
2021/09/23 05:07:37;;;;;;;39.10;6.78;;;14.60;87.10;;;;;;5067236;28;20035;-63
2021/09/23 05:10:03;;;;;;;29.65;6.25;;;14.60;87.10;;;;;;5085387;28;20028;-63
2021/09/23 05:12:29;;;;;;;31.75;6.53;;;14.60;87.10;;;;;;5084808;28;20024;-63
2021/09/23 05:14:54;;;;;;;27.38;6.28;;;14.60;87.20;;;;;;5061810;28;20025;-63
2021/09/23 05:17:20;;;;;;;29.00;7.00;;;14.60;87.20;;;;;;5085312;28;20101;-63
2021/09/23 05:19:46;;;;;;;31.45;6.53;;;14.50;87.10;;;;;;5084270;28;20495;-62
2021/09/23 05:22:11;;;;;;;27.48;7.00;;;14.50;87.20;;;;;;5064474;28;20513;-63
2021/09/23 05:24:37;;;;;;;23.23;5.63;;;14.50;87.20;;;;;;5081564;28;20109;-63
2021/09/23 05:27:03;;;;;;;30.92;5.30;;;14.40;87.20;;;;;;5059160;28;20098;-63
2021/09/23 05:29:28;;;;;;;16.40;5.15;;;14.50;87.30;;;;;;5078604;28;20032;-63
2021/09/23 05:31:54;;;;;;;23.13;6.25;;;14.50;87.30;;;;;;5080709;28;20020;-63
2021/09/23 05:34:19;;;;;;;22.00;6.10;;;14.40;87.10;;;;;;5064150;28;20024;-62
2021/09/23 05:36:45;;;;;;;18.50;5.63;;;14.40;87.20;;;;;;5063921;28;20387;-62
2021/09/23 05:39:11;;;;;;;15.77;5.47;;;14.40;87.20;;;;;;5080882;28;20401;-62
2021/09/23 05:41:41;;;;;;;18.42;5.82;;;14.40;87.20;;;;;;5062381;28;20063;-62
2021/09/23 05:44:07;;;;;;;24.02;6.45;;;14.40;87.20;;;;;;5062762;28;20013;-62
2021/09/23 05:46:32;;;;;;;18.20;6.07;;;14.40;87.20;;;;;;5076490;28;20548;-62
2021/09/23 05:48:58;;;;;;;20.98;6.05;;;14.40;87.20;;;;;;5072450;28;20047;-62
2021/09/23 05:51:23;;;;;;;12.77;5.32;;;14.40;87.20;;;;;;5081815;28;20115;-62
2021/09/23 05:53:49;;;;;;;15.18;5.78;;;14.40;87.20;;;;;;5058299;28;20020;-63
2021/09/23 05:56:14;;;;;;;19.52;6.63;;;14.30;87.30;;;;;;5074428;28;20991;-62
2021/09/23 05:58:40;;;;;;;18.13;6.35;;;14.30;87.30;;;;;;5079367;28;20042;-62
2021/09/23 06:01:05;;;;;;;17.15;5.57;;;14.30;87.30;;;;;;5072111;28;20324;-62
2021/09/23 06:03:31;;;;;;;13.63;5.68;;;14.30;87.30;;;;;;5060306;28;20155;-63
2021/09/23 06:05:56;;;;;;;10.57;5.50;;;14.30;87.30;;;;;;5040361;28;20023;-62
2021/09/23 06:08:22;;;;;;;19.92;5.90;;;14.30;87.30;;;;;;5074991;28;20395;-62
2021/09/23 06:10:47;;;;;;;9.18;5.15;;;14.30;87.30;;;;;;5073434;28;20124;-63
2021/09/23 06:13:13;;;;;;;9.40;5.47;;;14.30;87.30;;;;;;5062949;28;20202;-62
2021/09/23 06:15:38;;;;;;;14.82;5.90;;;14.30;87.30;;;;;;5079500;28;20389;-62
2021/09/23 06:18:04;;;;;;;15.25;5.63;;;14.30;87.30;;;;;;5082301;28;20050;-62
2021/09/23 06:20:29;;;;;;;22.95;6.55;;;14.30;87.20;;;;;;5059122;28;20786;-62
2021/09/23 06:22:55;;;;;;;15.98;5.82;;;14.40;87.20;;;;;;5076610;28;20028;-62
2021/09/23 06:25:21;;;;;;;14.18;5.93;;;14.30;87.20;;;;;;5043677;28;20454;-62
2021/09/23 06:27:46;;;;;;;18.73;6.18;;;14.30;87.20;;;;;;5059388;28;20521;-62
2021/09/23 06:30:13;;;;;;;13.07;5.75;;;14.40;87.20;;;;;;5062064;28;20028;-64
2021/09/23 06:32:38;;;;;;;10.23;5.47;;;14.30;87.10;;;;;;5062703;28;20039;-62
2021/09/23 06:35:04;;;;;;;11.18;5.57;;;14.30;87.10;;;;;;5050611;28;20040;-62
2021/09/23 06:37:30;;;;;;;12.20;5.63;;;14.40;87.00;;;;;;5058641;28;20032;-62
2021/09/23 06:39:55;;;;;;;14.13;5.00;;;14.30;87.00;;;;;;5060976;28;20024;-62
2021/09/23 06:42:21;;;;;;;16.23;5.50;;;14.40;87.00;;;;;;5043419;28;20036;-62
2021/09/23 06:44:47;;;;;;;13.48;5.53;;;14.30;87.00;;;;;;5059699;28;20029;-62
2021/09/23 06:47:13;;;;;;;10.10;5.40;;;14.40;87.00;;;;;;5077894;28;20090;-62
2021/09/23 06:49:38;;;;;;;8.15;5.53;;;14.40;87.10;;;;;;5061043;28;20191;-60
2021/09/23 06:52:04;;;;;;;11.48;5.55;;;14.30;87.10;;;;;;5049019;28;20812;-62
2021/09/23 06:54:29;;;;;;;9.90;5.40;;;14.40;87.10;;;;;;5067666;28;20588;-62
2021/09/23 06:56:55;;;;;;;14.02;6.10;;;14.40;87.10;;;;;;5052150;28;20031;-61
2021/09/23 06:59:20;;;;;;;17.10;5.53;;;14.40;87.20;;;;;;5060224;28;20028;-63
2021/09/23 07:01:49;;;;;;;10.35;6.05;;;14.30;87.20;;;;;;5051108;28;20496;-62
2021/09/23 07:04:15;;;;;;;13.43;7.15;;;14.40;87.30;;;;;;5040916;28;20610;-63
2021/09/23 07:06:41;;;;;;;10.32;7.00;;;14.40;88.00;;;;;;5075060;28;20048;-62
2021/09/23 07:09:08;;;;;;;13.43;7.60;;;14.40;88.20;;;;;;5057888;28;20020;-62
2021/09/23 07:11:34;;;;;;;15.73;7.38;;;14.30;88.50;;;;;;5075366;28;20456;-63
2021/09/23 07:14:00;;;;;;;16.08;7.88;;;14.40;88.90;;;;;;5052492;28;20032;-62
2021/09/23 07:16:25;;;;;;;12.43;7.05;;;14.30;89.00;;;;;;5061863;28;20997;-62
2021/09/23 07:18:51;;;;;;;15.90;7.78;;;14.30;89.10;;;;;;5075740;28;20777;-62
2021/09/23 07:21:16;;;;;;;26.48;8.88;;;14.30;89.20;;;;;;5078033;28;20020;-63
2021/09/23 07:23:42;;;;;;;15.65;7.82;;;14.30;89.30;;;;;;5057763;28;20039;-63
2021/09/23 07:26:07;;;;;;;26.45;9.13;;;14.30;89.40;;;;;;5060027;28;20052;-62
2021/09/23 07:28:33;;;;;;;29.70;9.00;;;14.30;89.70;;;;;;5057903;28;20069;-63
2021/09/23 07:30:58;;;;;;;20.42;8.23;;;14.30;90.00;;;;;;5080648;28;20096;-63
2021/09/23 07:33:24;;;;;;;21.10;8.55;;;14.30;90.00;;;;;;5050073;28;20106;-62
2021/09/23 07:35:50;;;;;;;28.80;9.15;;;14.30;90.30;;;;;;5052473;28;20617;-62
2021/09/23 07:38:16;;;;;;;23.13;8.90;;;14.30;90.20;;;;;;5060702;28;20134;-62
2021/09/23 07:40:41;;;;;;;20.17;9.65;;;14.30;90.30;;;;;;5059217;28;20048;-62
2021/09/23 07:43:07;;;;;;;36.10;9.82;;;14.30;90.40;;;;;;5075647;28;20029;-63
2021/09/23 07:45:32;;;;;;;21.90;9.65;;;14.30;90.40;;;;;;5071155;28;20627;-62
2021/09/23 07:47:58;;;;;;;21.20;10.48;;;14.40;90.50;;;;;;5060121;28;20044;-63
2021/09/23 07:50:24;;;;;;;24.85;9.95;;;14.30;90.60;;;;;;5076538;28;20062;-63
2021/09/23 07:52:49;;;;;;;21.52;10.52;;;14.40;90.70;;;;;;5039341;28;20052;-62
2021/09/23 07:55:15;;;;;;;27.25;10.20;;;14.50;90.80;;;;;;5051996;28;20860;-62
2021/09/23 07:57:41;;;;;;;24.35;11.13;;;14.40;90.70;;;;;;5038041;28;20494;-62
2021/09/23 08:00:07;;;;;;;29.95;11.63;;;14.40;90.80;;;;;;5052063;28;20035;-62
2021/09/23 08:02:32;;;;;;;23.08;11.13;;;14.50;90.90;;;;;;5052149;28;20036;-63
2021/09/23 08:04:58;;;;;;;26.83;10.18;;;14.50;90.90;;;;;;5052419;28;20172;-62
2021/09/23 08:07:23;;;;;;;22.00;11.27;;;14.50;90.70;;;;;;5068837;28;20386;-62
2021/09/23 08:09:49;;;;;;;19.25;10.98;;;14.60;90.90;;;;;;5070312;28;20143;-62
2021/09/23 08:12:14;;;;;;;29.98;12.55;;;14.60;90.70;;;;;;5073930;28;20036;-62
2021/09/23 08:14:40;;;;;;;30.50;11.77;;;14.60;90.70;;;;;;5053651;28;20036;-62
2021/09/23 08:17:06;;;;;;;42.95;12.60;;;14.70;90.70;;;;;;5056896;28;20062;-62
2021/09/23 08:19:35;;;;;;;27.30;12.35;;;14.70;90.70;;;;;;5051455;28;20044;-62
2021/09/23 08:22:01;;;;;;;21.15;12.13;;;14.70;90.90;;;;;;5054143;28;21105;-62
2021/09/23 08:24:26;;;;;;;25.40;12.55;;;14.80;90.90;;;;;;5040484;28;20454;-62
2021/09/23 08:26:52;;;;;;;38.08;13.07;;;14.80;90.80;;;;;;5076120;28;20514;-63
2021/09/23 08:29:17;;;;;;;33.13;12.40;;;14.80;90.80;;;;;;5059721;28;20715;-62
2021/09/23 08:31:43;;;;;;;33.95;15.20;;;14.80;90.80;;;;;;5045401;28;20403;-62
2021/09/23 08:34:12;;;;;;;30.08;14.35;;;14.90;90.80;;;;;;5039513;28;20058;-62
2021/09/23 08:36:37;;;;;;;38.45;14.75;;;14.90;90.70;;;;;;5073819;28;20035;-63
2021/09/23 08:39:03;;;;;;;34.40;14.02;;;14.90;90.60;;;;;;5077988;28;20187;-62
2021/09/23 08:41:28;;;;;;;33.03;13.60;;;15.00;90.70;;;;;;5061419;28;20166;-62
2021/09/23 08:43:55;;;;;;;43.28;14.50;;;15.00;90.60;;;;;;5075127;28;20438;-64
2021/09/23 08:46:20;;;;;;;43.33;15.32;;;15.00;90.50;;;;;;5062355;28;20047;-63
2021/09/23 08:48:48;;;;;;;29.80;13.00;;;15.00;90.60;;;;;;5044015;28;20024;-63
2021/09/23 08:51:14;;;;;;;43.50;14.30;;;15.10;90.50;;;;;;5061098;28;20111;-63
2021/09/23 08:53:40;;;;;;;64.50;16.88;;;15.10;90.40;;;;;;5073036;28;20047;-63
2021/09/23 08:56:13;;;;;;;79.25;17.75;;;15.20;90.40;;;;;;5079292;28;20392;-62
2021/09/23 08:58:39;;;;;;;53.88;16.52;;;15.20;90.40;;;;;;5044516;28;20051;-62
2021/09/23 09:01:09;;;;;;;34.40;15.15;;;15.20;90.50;;;;;;5060325;28;20645;-63
2021/09/23 09:03:36;;;;;;;42.42;14.85;;;15.20;90.50;;;;;;5074718;28;20103;-62
2021/09/23 09:06:09;;;;;;;49.90;16.75;;;15.30;90.50;;;;;;5044881;28;20415;-63
2021/09/23 09:08:35;;;;;;;44.53;15.65;;;15.30;90.50;;;;;;5056690;28;20585;-61
2021/09/23 09:11:02;;;;;;;45.55;16.10;;;15.30;90.50;;;;;;5058804;28;20032;-62
2021/09/23 09:13:41;;;;;;;44.95;15.23;;;15.40;90.60;;;;;;5081382;28;20055;-62
2021/09/23 09:16:18;;;;;;;41.53;16.52;;;15.40;90.80;;;;;;5055345;28;20222;-62
2021/09/23 09:18:44;;;;;;;48.63;16.15;;;15.40;91.00;;;;;;5058563;28;20024;-63
2021/09/23 09:21:11;;;;;;;37.58;16.13;;;15.40;90.70;;;;;;5046101;28;20024;-63
2021/09/23 09:23:46;;;;;;;36.60;15.70;;;15.50;90.60;;;;;;5061801;28;20105;-63
2021/09/23 09:26:20;;;;;;;29.40;15.30;;;15.50;90.50;;;;;;5091001;28;20044;-62
2021/09/23 09:28:47;;;;;;;34.00;15.60;;;15.50;90.40;;;;;;5057882;28;20020;-62
2021/09/23 09:31:12;;;;;;;39.00;15.75;;;15.50;90.50;;;;;;5079076;28;20040;-62
2021/09/23 09:33:40;;;;;;;34.25;16.08;;;15.60;90.40;;;;;;5056887;28;20042;-62
2021/09/23 09:36:21;;;;;;;47.42;15.63;;;15.60;90.50;;;;;;5057242;28;20020;-63
2021/09/23 09:38:47;;;;;;;74.03;17.65;;;15.60;90.50;;;;;;5049092;28;20040;-62
2021/09/23 09:41:12;;;;;;;53.25;16.25;;;15.70;90.50;;;;;;5062269;28;20421;-63
2021/09/23 09:43:38;;;;;;;65.90;17.42;;;15.70;90.30;;;;;;5062183;28;20424;-62
2021/09/23 09:46:03;;;;;;;40.42;17.00;;;15.70;90.60;;;;;;5055027;28;20055;-63
2021/09/23 09:48:30;;;;;;;53.00;17.15;;;15.80;90.60;;;;;;5073442;28;20163;-63
2021/09/23 09:50:58;;;;;;;46.78;17.65;;;15.90;90.70;;;;;;5056110;28;20054;-62
2021/09/23 09:53:25;;;;;;;44.40;16.77;;;15.80;90.70;;;;;;5061371;28;20036;-62
2021/09/23 09:55:51;;;;;;;51.30;16.77;;;15.90;90.70;;;;;;5060905;28;20168;-63
2021/09/23 09:58:22;;;;;;;56.92;16.77;;;16.00;90.70;;;;;;5079857;28;20055;-63
2021/09/23 10:00:47;;;;;;;42.28;16.60;;;16.00;90.70;;;;;;5057347;28;20395;-62
2021/09/23 10:03:13;;;;;;;58.45;18.70;;;16.00;90.50;;;;;;5078396;28;20024;-62
2021/09/23 10:05:38;;;;;;;52.17;15.02;;;16.10;90.40;;;;;;5054984;28;20079;-63
2021/09/23 10:08:04;;;;;;;39.55;15.27;;;16.10;90.30;;;;;;5044291;28;20233;-62
2021/09/23 10:10:31;;;;;;;35.47;14.90;;;16.20;90.30;;;;;;5060267;28;20503;-62
2021/09/23 10:12:58;;;;;;;172.38;25.95;;;16.20;90.10;;;;;;5079960;28;20024;-62
2021/09/23 10:15:24;;;;;;;68.82;17.80;;;16.20;90.10;;;;;;5051275;28;20094;-62
2021/09/23 10:17:50;;;;;;;61.15;17.77;;;16.30;90.00;;;;;;5072519;28;20345;-63
2021/09/23 10:20:18;;;;;;;55.78;15.98;;;16.30;90.00;;;;;;5034685;28;20047;-63
2021/09/23 10:22:43;;;;;;;53.03;15.13;;;16.30;90.00;;;;;;5056183;28;20024;-63
2021/09/23 10:25:11;;;;;;;56.58;15.60;;;16.40;90.00;;;;;;5080783;28;20133;-63
2021/09/23 10:30:21;;;;;;;43.25;13.75;;;16.40;89.80;;;;;;5056067;28;20043;-63
2021/09/23 10:32:47;;;;;;;63.83;16.48;;;16.40;89.50;;;;;;5041483;28;20040;-63
2021/09/23 10:35:22;;;;;;;49.10;15.85;;;16.50;89.60;;;;;;5056518;28;20207;-62
2021/09/23 10:37:47;;;;;;;50.13;14.75;;;16.50;89.70;;;;;;5061533;28;20038;-61
2021/09/23 10:40:14;;;;;;;47.35;15.50;;;16.50;89.50;;;;;;5044392;28;20657;-63
2021/09/23 10:42:39;;;;;;;50.53;13.70;;;16.50;89.40;;;;;;5074192;28;20607;-63
2021/09/23 10:45:05;;;;;;;59.88;14.23;;;16.60;89.10;;;;;;5057527;28;20165;-62
2021/09/23 10:47:33;;;;;;;78.90;15.15;;;16.60;89.00;;;;;;5057206;28;20455;-63
2021/09/23 10:49:59;;;;;;;46.25;14.55;;;16.60;89.00;;;;;;5052120;28;20098;-62
2021/09/23 10:52:31;;;;;;;68.68;15.23;;;16.70;88.90;;;;;;5057760;28;20499;-62
2021/09/23 10:55:06;;;;;;;42.42;13.35;;;16.70;89.00;;;;;;5030667;28;20027;-63
2021/09/23 10:57:32;;;;;;;73.45;14.77;;;16.70;88.60;;;;;;5064494;28;20048;-62
2021/09/23 11:00:04;;;;;;;40.40;13.55;;;16.80;88.80;;;;;;5058916;28;20035;-63
2021/09/23 11:02:31;;;;;;;51.88;13.88;;;16.70;88.70;;;;;;5041321;28;20047;-63
2021/09/23 11:04:59;;;;;;;58.70;14.93;;;16.80;88.60;;;;;;5056155;28;20435;-62
2021/09/23 11:07:25;;;;;;;57.40;15.77;;;16.90;88.70;;;;;;5078968;28;20032;-63
2021/09/23 11:10:09;;;;;;;45.08;14.38;;;16.90;88.70;;;;;;5044446;28;20529;-62
2021/09/23 11:12:35;;;;;;;62.05;13.48;;;16.90;89.20;;;;;;5078595;28;20020;-63
2021/09/23 11:15:01;;;;;;;48.45;14.95;;;17.00;89.10;;;;;;5053773;28;20046;-63
2021/09/23 11:17:27;;;;;;;63.88;16.27;;;17.00;88.90;;;;;;5026133;28;20036;-62
2021/09/23 11:20:00;;;;;;;55.17;14.05;;;17.10;89.20;;;;;;5055135;28;20410;-63
2021/09/23 11:22:40;;;;;;;52.55;13.77;;;17.10;89.00;;;;;;5041246;28;20040;-62
2021/09/23 11:25:11;;;;;;;47.72;15.27;;;17.10;88.90;;;;;;5044913;28;20047;-62
2021/09/23 11:27:37;;;;;;;61.05;15.63;;;17.10;89.00;;;;;;5060228;28;20040;-62
2021/09/23 11:30:04;;;;;;;70.88;16.77;;;17.20;88.70;;;;;;5074270;28;20078;-63
2021/09/23 11:32:29;;;;;;;67.30;14.75;;;17.20;88.90;;;;;;5065912;28;20016;-62
2021/09/23 11:34:56;;;;;;;77.03;16.83;;;17.30;88.60;;;;;;5066319;28;20032;-62
2021/09/23 11:37:30;;;;;;;74.95;16.60;;;17.30;88.70;;;;;;5071531;28;20499;-63
2021/09/23 11:39:59;;;;;;;54.40;15.50;;;17.40;88.50;;;;;;5055464;28;20112;-64
2021/09/23 11:42:31;;;;;;;81.22;17.52;;;17.40;88.50;;;;;;5068415;28;20029;-63
2021/09/23 11:45:17;;;;;;;60.47;14.40;;;17.50;88.50;;;;;;5055298;28;20575;-63
2021/09/23 11:47:48;;;;;;;;;;;17.50;88.10;;;;;;5060441;28;20033;-63
2021/09/23 11:50:43;;;;;;;57.75;14.75;;;17.60;88.00;;;;;;5080024;28;19958;-62
2021/09/23 11:53:23;;;;;;;87.38;16.10;;;17.60;87.70;;;;;;5046838;28;20431;-63
2021/09/23 11:55:56;;;;;;;200.00;26.92;;;17.70;87.70;;;;;;5062032;28;20043;-62
2021/09/23 11:58:22;;;;;;;89.43;18.00;;;17.70;87.50;;;;;;5063101;28;20056;-63
2021/09/23 12:00:49;;;;;;;207.68;26.10;;;17.70;87.30;;;;;;5074829;28;20083;-62
2021/09/23 12:03:15;;;;;;;162.20;20.90;;;17.80;87.50;;;;;;5035203;28;20490;-63
2021/09/23 12:05:41;;;;;;;734.08;77.25;;;17.80;87.40;;;;;;5059224;28;20266;-60
2021/09/23 12:08:11;;;;;;;126.63;19.90;;;17.90;87.50;;;;;;5059465;28;20317;-60
2021/09/23 12:10:50;;;;;;;106.47;19.30;;;17.90;87.10;;;;;;5041373;28;20028;-60
2021/09/23 12:13:25;;;;;;;149.25;20.98;;;18.00;87.10;;;;;;5074502;28;20058;-61
2021/09/23 12:15:52;;;;;;;129.48;20.15;;;18.00;87.00;;;;;;5046785;28;20035;-61
2021/09/23 12:18:17;;;;;;;85.60;16.38;;;18.10;87.00;;;;;;5056038;28;20581;-63
2021/09/23 12:20:45;;;;;;;96.47;15.93;;;18.10;86.70;;;;;;5053630;28;20032;-64
2021/09/23 12:23:34;;;;;;;55.45;12.90;;;18.20;86.60;;;;;;5046606;28;20101;-63
2021/09/23 12:26:19;;;;;;;47.63;13.07;;;18.20;86.40;;;;;;5076304;28;20426;-63
2021/09/23 12:29:01;;;;;;;57.53;13.27;;;18.30;86.30;;;;;;5072671;28;20032;-63
2021/09/23 12:31:39;;;;;;;91.78;15.32;;;18.30;85.90;;;;;;5040928;28;20188;-63
2021/09/23 12:34:15;;;;;;;103.38;18.67;;;18.40;86.00;;;;;;5051601;28;20020;-63
2021/09/23 12:36:42;;;;;;;88.28;15.93;;;18.40;86.20;;;;;;5060169;28;20345;-63